createdAt,value
2023-07-08T00:00:27.792Z,83.13
2023-07-08T00:02:56.253Z,83.40
2023-07-08T00:05:25.781Z,83.15
2023-07-08T00:07:53.743Z,83.32
2023-07-08T00:10:25.796Z,83.15
2023-07-08T00:12:59.452Z,81.85
2023-07-08T00:15:29.944Z,81.80
2023-07-08T00:17:58.077Z,82.30
2023-07-08T00:20:38.136Z,82.48
2023-07-08T00:23:06.376Z,82.90
2023-07-08T00:25:35.865Z,82.93
2023-07-08T00:28:04.048Z,83.15
2023-07-08T00:30:33.654Z,83.65
2023-07-08T00:33:01.768Z,83.65
2023-07-08T00:35:33.873Z,83.56
2023-07-08T00:38:03.473Z,83.52
2023-07-08T00:40:33.983Z,83.79
2023-07-08T00:43:07.556Z,83.95
2023-07-08T00:45:57.253Z,84.19
2023-07-08T00:48:35.342Z,84.69
2023-07-08T00:51:03.462Z,84.31
2023-07-08T00:53:34.257Z,84.34
2023-07-08T00:56:04.962Z,84.06
2023-07-08T00:58:39.573Z,84.50
2023-07-08T01:01:08.225Z,84.21
2023-07-08T01:03:45.379Z,84.35
2023-07-08T01:06:14.270Z,84.26
2023-07-08T01:08:42.349Z,84.40
2023-07-08T01:11:10.618Z,84.29
2023-07-08T01:13:45.152Z,84.63
2023-07-08T01:16:13.434Z,84.83
2023-07-08T01:18:42.295Z,84.88
2023-07-08T01:21:33.918Z,84.95
2023-07-08T01:24:06.114Z,85.40
2023-07-08T01:26:37.436Z,85.58
2023-07-08T01:29:06.286Z,85.31
2023-07-08T01:31:34.376Z,85.66
2023-07-08T01:34:02.823Z,86.08
2023-07-08T01:36:43.668Z,85.97
2023-07-08T01:39:17.137Z,85.74
2023-07-08T01:41:45.125Z,85.45
2023-07-08T01:44:25.289Z,85.45
2023-07-08T01:46:57.421Z,85.83
2023-07-08T01:49:25.823Z,86.14
2023-07-08T01:51:54.442Z,86.04
2023-07-08T01:54:23.801Z,86.00
2023-07-08T01:56:57.354Z,86.20
2023-07-08T01:59:25.718Z,86.08
2023-07-08T02:01:56.291Z,86.14
2023-07-08T02:04:25.744Z,86.60
2023-07-08T02:06:55.750Z,86.69
2023-07-08T02:09:26.150Z,86.65
2023-07-08T02:11:54.286Z,86.64
2023-07-08T02:14:22.557Z,86.91
2023-07-08T02:16:51.288Z,86.40
2023-07-08T02:19:19.417Z,86.23
2023-07-08T02:21:47.378Z,86.22
2023-07-08T02:24:18.193Z,85.85
2023-07-08T02:26:48.947Z,85.27
2023-07-08T02:29:16.963Z,85.49
2023-07-08T02:31:44.961Z,85.17
2023-07-08T02:34:13.186Z,85.12
2023-07-08T02:36:41.147Z,85.31
2023-07-08T02:39:09.264Z,85.00
2023-07-08T02:41:37.449Z,84.91
2023-07-08T02:44:07.411Z,85.28
2023-07-08T02:46:35.655Z,83.62
2023-07-08T02:49:03.668Z,82.15
2023-07-08T02:51:31.681Z,81.70
2023-07-08T02:53:59.764Z,80.60
2023-07-08T02:56:28.305Z,80.67
2023-07-08T02:58:56.372Z,80.50
2023-07-08T03:01:27.905Z,79.70
2023-07-08T03:03:58.130Z,79.53
2023-07-08T03:06:28.607Z,79.33
2023-07-08T03:08:56.598Z,78.85
2023-07-08T03:11:25.213Z,78.03
2023-07-08T03:13:53.277Z,78.43
2023-07-08T03:16:21.324Z,77.82
2023-07-08T03:18:50.749Z,77.62
2023-07-08T03:21:20.224Z,77.90
2023-07-08T03:23:49.644Z,77.40
2023-07-08T03:26:19.468Z,77.21
2023-07-08T03:28:47.739Z,76.75
2023-07-08T03:31:15.912Z,77.09
2023-07-08T03:33:44.024Z,76.62
2023-07-08T03:36:23.847Z,76.73
2023-07-08T03:38:52.797Z,76.75
2023-07-08T03:41:21.171Z,76.81
2023-07-08T03:43:49.155Z,76.74
2023-07-08T03:46:17.772Z,76.45
2023-07-08T03:48:45.783Z,76.44
2023-07-08T03:51:25.471Z,75.56
2023-07-08T03:53:53.572Z,76.14
2023-07-08T03:56:21.568Z,75.93
2023-07-08T03:58:49.597Z,76.11
2023-07-08T04:01:18.671Z,75.95
2023-07-08T04:03:47.088Z,75.06
2023-07-08T04:06:16.506Z,75.75
2023-07-08T04:08:44.557Z,75.03
2023-07-08T04:11:14.857Z,75.59
2023-07-08T04:13:44.111Z,74.99
2023-07-08T04:16:20.549Z,76.09
2023-07-08T04:18:52.171Z,75.43
2023-07-08T04:21:22.907Z,75.05
2023-07-08T04:23:51.516Z,75.17
2023-07-08T04:26:20.172Z,75.14
2023-07-08T04:28:48.898Z,75.35
2023-07-08T04:31:17.008Z,74.98
2023-07-08T04:33:45.007Z,74.52
2023-07-08T04:36:18.128Z,73.79
2023-07-08T04:38:48.291Z,74.24
2023-07-08T04:41:16.359Z,72.81
2023-07-08T04:43:44.944Z,73.08
2023-07-08T04:46:21.410Z,72.72
2023-07-08T04:48:49.445Z,72.03
2023-07-08T04:51:17.438Z,72.48
2023-07-08T04:53:45.433Z,71.82
2023-07-08T04:56:14.801Z,72.10
2023-07-08T04:58:42.833Z,70.43
2023-07-08T05:01:10.828Z,71.33
2023-07-08T05:03:38.898Z,69.84
2023-07-08T05:06:06.961Z,70.69
2023-07-08T05:08:34.943Z,71.48
2023-07-08T05:11:03.118Z,71.37
2023-07-08T05:13:32.580Z,71.33
2023-07-08T05:16:00.640Z,71.82
2023-07-08T05:18:28.642Z,72.43
2023-07-08T05:20:57.255Z,72.22
2023-07-08T05:23:25.492Z,72.43
2023-07-08T05:25:53.479Z,73.08
2023-07-08T05:28:22.716Z,73.01
2023-07-08T05:30:55.364Z,72.76
2023-07-08T05:33:23.518Z,72.91
2023-07-08T05:35:51.567Z,72.82
2023-07-08T05:38:20.185Z,71.83
2023-07-08T05:40:51.579Z,71.39
2023-07-08T05:43:19.637Z,70.42
2023-07-08T05:46:01.681Z,70.81
2023-07-08T05:48:38.161Z,70.41
2023-07-08T05:51:06.186Z,69.48
2023-07-08T05:53:34.181Z,68.97
2023-07-08T05:56:04.650Z,69.10
2023-07-08T05:58:32.673Z,68.86
2023-07-08T06:01:01.444Z,68.40
2023-07-08T06:03:29.837Z,68.89
2023-07-08T06:05:59.479Z,69.23
2023-07-08T06:08:27.802Z,68.21
2023-07-08T06:10:55.808Z,67.65
2023-07-08T06:13:23.909Z,67.49
2023-07-08T06:16:14.378Z,68.20
2023-07-08T06:18:44.392Z,67.69
2023-07-08T06:21:13.827Z,67.50
2023-07-08T06:23:41.813Z,67.28
2023-07-08T06:26:09.783Z,66.65
2023-07-08T06:28:37.799Z,66.15
2023-07-08T06:31:08.704Z,66.48
2023-07-08T06:33:36.788Z,66.00
2023-07-08T06:36:05.682Z,64.99
2023-07-08T06:38:35.033Z,65.66
2023-07-08T06:41:03.100Z,64.76
2023-07-08T06:43:32.681Z,64.75
2023-07-08T06:46:00.747Z,65.40
2023-07-08T06:48:28.786Z,64.75
2023-07-08T06:50:57.121Z,63.58
2023-07-08T06:53:25.012Z,64.80
2023-07-08T06:55:54.439Z,64.60
2023-07-08T06:58:22.775Z,63.29
2023-07-08T07:00:50.504Z,63.31
2023-07-08T07:03:21.315Z,63.38
2023-07-08T07:05:49.361Z,62.73
2023-07-08T07:08:19.677Z,62.69
2023-07-08T07:10:47.665Z,62.79
2023-07-08T07:13:17.185Z,63.13
2023-07-08T07:15:45.341Z,62.71
2023-07-08T07:18:14.118Z,62.77
2023-07-08T07:20:50.885Z,63.22
2023-07-08T07:23:19.050Z,63.32
2023-07-08T07:25:48.591Z,62.37
2023-07-08T07:28:19.225Z,63.19
2023-07-08T07:30:51.096Z,63.25
2023-07-08T07:33:19.315Z,63.58
2023-07-08T07:35:47.740Z,63.75
2023-07-08T07:38:17.449Z,62.54
2023-07-08T07:40:45.735Z,63.55
2023-07-08T07:43:15.186Z,63.09
2023-07-08T07:45:44.512Z,63.33
2023-07-08T07:48:12.580Z,62.55
2023-07-08T07:50:41.028Z,61.49
2023-07-08T07:53:09.415Z,62.58
2023-07-08T07:55:37.521Z,61.25
2023-07-08T07:58:06.201Z,60.67
2023-07-08T08:00:34.205Z,62.38
2023-07-08T08:03:03.756Z,62.33
2023-07-08T08:05:31.814Z,60.83
2023-07-08T08:08:00.952Z,59.67
2023-07-08T08:10:28.947Z,60.96
2023-07-08T08:12:56.962Z,59.77
2023-07-08T08:15:24.989Z,58.53
2023-07-08T08:17:53.877Z,59.05
2023-07-08T08:20:26.202Z,58.98
2023-07-08T08:22:57.417Z,58.87
2023-07-08T08:25:26.576Z,59.12
2023-07-08T08:27:54.913Z,58.71
2023-07-08T08:30:23.820Z,59.01
2023-07-08T08:32:51.943Z,57.93
2023-07-08T08:35:20.003Z,58.75
2023-07-08T08:37:49.426Z,59.23
2023-07-08T08:40:21.995Z,57.60
2023-07-08T08:42:55.501Z,56.91
2023-07-08T08:45:26.852Z,56.29
2023-07-08T08:48:00.669Z,54.41
2023-07-08T08:50:35.887Z,54.03
2023-07-08T08:53:10.901Z,56.66
2023-07-08T08:55:39.092Z,55.63
2023-07-08T08:58:12.551Z,56.03
2023-07-08T09:00:48.994Z,55.46
2023-07-08T09:03:19.754Z,54.17
2023-07-08T09:05:49.142Z,54.72
2023-07-08T09:08:35.871Z,53.36
2023-07-08T09:11:15.598Z,54.99
2023-07-08T09:13:43.751Z,53.57
2023-07-08T09:16:16.587Z,54.10
2023-07-08T09:18:52.227Z,53.71
2023-07-08T09:21:28.074Z,53.57
2023-07-08T09:24:04.127Z,51.79
2023-07-08T09:26:34.962Z,51.39
2023-07-08T09:29:12.791Z,51.58
2023-07-08T09:31:50.150Z,50.71
2023-07-08T09:34:19.780Z,50.58
2023-07-08T09:36:49.672Z,50.38
2023-07-08T09:39:20.408Z,49.24
2023-07-08T09:41:50.692Z,49.57
2023-07-08T09:44:27.654Z,47.58
2023-07-08T09:46:56.530Z,47.75
2023-07-08T09:49:29.066Z,49.64
2023-07-08T09:51:57.435Z,49.99
2023-07-08T09:54:28.500Z,48.95
2023-07-08T09:57:10.930Z,49.21
2023-07-08T09:59:46.656Z,47.64
2023-07-08T10:02:45.105Z,47.15
2023-07-08T10:05:25.949Z,47.09
2023-07-08T10:07:57.048Z,47.31
2023-07-08T10:10:32.389Z,47.13
2023-07-08T10:13:05.068Z,47.96
2023-07-08T10:15:43.849Z,48.22
2023-07-08T10:18:17.093Z,47.57
2023-07-08T10:20:56.660Z,46.79
2023-07-08T10:23:36.994Z,47.49
2023-07-08T10:26:13.668Z,46.29
2023-07-08T10:28:50.160Z,47.56
2023-07-08T10:31:28.930Z,45.50
2023-07-08T10:34:19.713Z,46.52
2023-07-08T10:36:53.095Z,45.91
2023-07-08T10:39:53.609Z,44.42
2023-07-08T10:42:37.324Z,43.87
2023-07-08T10:45:14.297Z,43.53
2023-07-08T10:48:03.843Z,43.33
2023-07-08T10:50:54.366Z,43.06
2023-07-08T10:53:39.197Z,42.46
2023-07-08T10:56:17.418Z,44.57
2023-07-08T10:59:15.257Z,44.63
2023-07-08T11:01:55.507Z,43.40
2023-07-08T11:04:29.057Z,44.09
2023-07-08T11:07:00.048Z,44.42
2023-07-08T11:09:35.271Z,42.63
2023-07-08T11:12:13.655Z,43.31
2023-07-08T11:14:49.983Z,43.89
2023-07-08T11:17:23.265Z,41.95
2023-07-08T11:19:57.471Z,40.98
2023-07-08T11:22:25.531Z,41.63
2023-07-08T11:24:57.731Z,42.49
2023-07-08T11:27:29.385Z,42.96
2023-07-08T11:30:02.253Z,44.13
2023-07-08T11:32:32.503Z,44.24
2023-07-08T11:35:06.549Z,42.78
2023-07-08T11:37:36.263Z,43.63
2023-07-08T11:40:09.877Z,41.76
2023-07-08T11:42:43.283Z,39.26
2023-07-08T11:45:27.125Z,40.11
2023-07-08T11:47:55.752Z,39.31
2023-07-08T11:50:26.537Z,39.83
2023-07-08T11:52:57.525Z,40.27
2023-07-08T11:55:31.121Z,40.70
2023-07-08T11:58:02.446Z,40.91
2023-07-08T12:00:36.066Z,41.17
2023-07-08T12:03:20.665Z,40.12
2023-07-08T12:05:48.807Z,41.19
2023-07-08T12:08:20.373Z,40.67
2023-07-08T12:10:52.388Z,40.47
2023-07-08T12:13:25.637Z,40.59
2023-07-08T12:15:56.571Z,40.47
2023-07-08T12:18:27.608Z,39.55
2023-07-08T12:20:59.300Z,37.22
2023-07-08T12:23:29.365Z,38.76
2023-07-08T12:25:59.798Z,38.08
2023-07-08T12:28:28.169Z,38.17
2023-07-08T12:31:00.873Z,37.02
2023-07-08T12:33:35.171Z,37.38
2023-07-08T12:36:06.138Z,36.72
2023-07-08T12:38:57.798Z,36.74
2023-07-08T12:41:29.612Z,35.16
2023-07-08T12:43:58.437Z,34.86
2023-07-08T12:46:28.735Z,33.19
2023-07-08T12:48:56.798Z,34.78
2023-07-08T12:51:26.361Z,35.33
2023-07-08T12:53:55.666Z,36.58
2023-07-08T12:56:26.229Z,37.85
2023-07-08T12:58:58.922Z,37.02
2023-07-08T13:01:33.358Z,35.73
2023-07-08T13:04:05.099Z,36.41
2023-07-08T13:06:35.582Z,36.43
2023-07-08T13:09:10.330Z,36.70
2023-07-08T13:11:39.374Z,36.48
2023-07-08T13:14:09.119Z,36.77
2023-07-08T13:16:38.867Z,36.56
2023-07-08T13:19:07.312Z,35.11
2023-07-08T13:21:35.619Z,36.96
2023-07-08T13:24:42.822Z,34.35
2023-07-08T13:27:18.994Z,34.58
2023-07-08T13:29:46.999Z,34.36
2023-07-08T13:32:16.470Z,33.67
2023-07-08T13:34:48.598Z,34.71
2023-07-08T13:37:16.629Z,33.03
2023-07-08T13:39:50.012Z,32.70
2023-07-08T13:42:18.439Z,33.76
2023-07-08T13:44:48.166Z,34.28
2023-07-08T13:47:29.075Z,33.79
2023-07-08T13:50:06.055Z,33.59
2023-07-08T13:52:34.470Z,34.82
2023-07-08T13:55:26.498Z,33.78
2023-07-08T13:58:16.300Z,33.70
2023-07-08T14:00:44.449Z,31.82
2023-07-08T14:03:15.647Z,33.17
2023-07-08T14:05:47.368Z,31.54
2023-07-08T14:08:19.051Z,32.33
2023-07-08T14:10:47.124Z,32.35
2023-07-08T14:13:16.845Z,32.51
2023-07-08T14:15:44.941Z,33.07
2023-07-08T14:18:14.549Z,34.43
2023-07-08T14:20:42.613Z,35.36
2023-07-08T14:23:12.045Z,36.02
2023-07-08T14:25:40.071Z,36.79
2023-07-08T14:28:09.588Z,38.40
2023-07-08T14:30:43.028Z,36.52
2023-07-08T14:33:14.380Z,35.22
2023-07-08T14:35:43.949Z,31.97
2023-07-08T14:38:14.566Z,28.02
2023-07-08T14:40:44.165Z,25.52
2023-07-08T14:43:20.088Z,24.25
2023-07-08T14:45:51.828Z,22.78
2023-07-08T14:48:21.494Z,22.29
2023-07-08T14:50:49.664Z,21.32
2023-07-08T14:53:23.225Z,21.25
2023-07-08T14:55:54.784Z,20.77
2023-07-08T14:58:25.963Z,21.54
2023-07-08T15:00:57.751Z,22.29
2023-07-08T15:03:29.222Z,24.11
2023-07-08T15:05:57.851Z,24.95
2023-07-08T15:08:29.028Z,24.86
2023-07-08T15:10:59.378Z,24.65
2023-07-08T15:13:32.352Z,22.71
2023-07-08T15:16:13.246Z,20.02
2023-07-08T15:18:42.869Z,17.90
2023-07-08T15:21:16.740Z,19.53
2023-07-08T15:23:44.741Z,19.95
2023-07-08T15:26:16.887Z,19.40
2023-07-08T15:28:53.278Z,19.72
2023-07-08T15:31:26.015Z,20.08
2023-07-08T15:33:58.129Z,21.08
2023-07-08T15:36:32.283Z,22.13
2023-07-08T15:39:00.250Z,22.20
2023-07-08T15:41:29.284Z,21.01
2023-07-08T15:43:58.128Z,19.85
2023-07-08T15:46:31.332Z,19.07
2023-07-08T15:49:00.846Z,18.97
2023-07-08T15:51:30.483Z,18.95
2023-07-08T15:54:00.960Z,19.57
2023-07-08T15:56:29.073Z,19.33
2023-07-08T15:58:57.077Z,19.93
2023-07-08T16:01:27.110Z,22.31
2023-07-08T16:03:55.130Z,24.32
2023-07-08T16:06:24.477Z,25.88
2023-07-08T16:08:52.428Z,26.94
2023-07-08T16:11:28.044Z,27.75
2023-07-08T16:13:56.151Z,30.87
2023-07-08T16:16:26.621Z,32.33
2023-07-08T16:18:54.660Z,33.32
2023-07-08T16:21:23.051Z,33.32
2023-07-08T16:23:52.381Z,34.15
2023-07-08T16:26:20.406Z,34.69
2023-07-08T16:28:49.807Z,33.91
2023-07-08T16:31:19.974Z,34.35
2023-07-08T16:33:49.737Z,34.67
2023-07-08T16:36:21.551Z,34.55
2023-07-08T16:38:50.234Z,35.15
2023-07-08T16:41:21.676Z,35.02
2023-07-08T16:43:50.405Z,34.86
2023-07-08T16:46:20.054Z,34.70
2023-07-08T16:48:48.321Z,35.01
2023-07-08T16:51:18.079Z,36.32
2023-07-08T16:53:46.916Z,36.53
2023-07-08T16:56:19.311Z,37.17
2023-07-08T16:58:48.888Z,37.81
2023-07-08T17:01:21.757Z,38.59
2023-07-08T17:03:50.459Z,39.64
2023-07-08T17:06:18.623Z,40.52
2023-07-08T17:08:46.789Z,41.29
2023-07-08T17:11:14.858Z,41.14
2023-07-08T17:13:42.694Z,41.40
2023-07-08T17:16:16.336Z,42.54
2023-07-08T17:18:45.159Z,42.15
2023-07-08T17:21:16.745Z,41.25
2023-07-08T17:23:44.795Z,41.36
2023-07-08T17:26:12.606Z,41.65
2023-07-08T17:28:40.663Z,42.48
2023-07-08T17:31:12.030Z,42.10
2023-07-08T17:33:41.765Z,41.97
2023-07-08T17:36:12.297Z,40.99
2023-07-08T17:38:45.533Z,40.71
2023-07-08T17:41:15.759Z,40.50
2023-07-08T17:43:43.974Z,41.89
2023-07-08T17:46:14.600Z,41.91
2023-07-08T17:48:48.300Z,41.94
2023-07-08T17:51:17.443Z,41.69
2023-07-08T17:53:45.672Z,40.94
2023-07-08T17:56:21.218Z,41.16
2023-07-08T17:58:50.464Z,41.12
2023-07-08T18:01:19.050Z,41.37
2023-07-08T18:03:49.217Z,41.40
2023-07-08T18:06:17.630Z,41.64
2023-07-08T18:08:45.635Z,41.63
2023-07-08T18:11:15.170Z,42.15
2023-07-08T18:13:43.899Z,43.69
2023-07-08T18:16:13.693Z,43.60
2023-07-08T18:18:43.003Z,44.29
2023-07-08T18:21:15.671Z,43.65
2023-07-08T18:23:44.427Z,43.85
2023-07-08T18:26:19.754Z,43.12
2023-07-08T18:28:48.083Z,41.89
2023-07-08T18:31:18.152Z,41.71
2023-07-08T18:33:46.414Z,40.53
2023-07-08T18:36:17.938Z,40.76
2023-07-08T18:38:46.178Z,41.76
2023-07-08T18:41:20.801Z,42.37
2023-07-08T18:43:49.202Z,42.96
2023-07-08T18:46:18.875Z,43.07
2023-07-08T18:48:47.130Z,43.70
2023-07-08T18:51:19.496Z,44.01
2023-07-08T18:53:47.471Z,43.24
2023-07-08T18:56:22.303Z,41.93
2023-07-08T18:58:50.331Z,40.17
2023-07-08T19:01:19.496Z,39.14
2023-07-08T19:03:48.724Z,39.18
2023-07-08T19:06:19.319Z,38.65
2023-07-08T19:08:49.169Z,39.54
2023-07-08T19:11:22.998Z,39.49
2023-07-08T19:13:51.808Z,40.53
2023-07-08T19:16:22.707Z,42.49
2023-07-08T19:18:52.624Z,42.91
2023-07-08T19:21:25.324Z,44.59
2023-07-08T19:23:55.715Z,45.05
2023-07-08T19:26:26.101Z,45.69
2023-07-08T19:28:56.840Z,46.95
2023-07-08T19:31:29.581Z,47.80
2023-07-08T19:33:58.478Z,49.17
2023-07-08T19:36:28.521Z,49.95
2023-07-08T19:38:56.519Z,50.39
2023-07-08T19:41:27.982Z,51.91
2023-07-08T19:43:57.357Z,52.36
2023-07-08T19:46:25.603Z,52.98
2023-07-08T19:48:53.609Z,53.53
2023-07-08T19:51:21.636Z,54.09
2023-07-08T19:53:52.892Z,54.75
2023-07-08T19:56:23.173Z,55.18
2023-07-08T19:58:52.004Z,55.84
2023-07-08T20:01:22.027Z,56.59
2023-07-08T20:03:50.362Z,57.17
2023-07-08T20:06:21.561Z,57.21
2023-07-08T20:08:52.757Z,57.69
2023-07-08T20:11:20.937Z,57.89
2023-07-08T20:13:49.877Z,58.65
2023-07-08T20:16:21.540Z,58.77
2023-07-08T20:18:49.958Z,59.08
2023-07-08T20:21:17.930Z,59.42
2023-07-08T20:23:46.336Z,59.62
2023-07-08T20:26:28.156Z,60.04
2023-07-08T20:28:56.446Z,60.76
2023-07-08T20:31:24.967Z,60.62
2023-07-08T20:33:54.174Z,61.31
2023-07-08T20:36:23.690Z,62.15
2023-07-08T20:38:52.141Z,62.38
2023-07-08T20:41:22.052Z,62.25
2023-07-08T20:43:50.058Z,63.15
2023-07-08T20:46:22.066Z,63.51
2023-07-08T20:48:54.565Z,63.30
2023-07-08T20:51:25.154Z,63.25
2023-07-08T20:53:54.004Z,64.14
2023-07-08T20:56:28.558Z,64.40
2023-07-08T20:58:59.102Z,64.33
2023-07-08T21:01:27.584Z,64.20
2023-07-08T21:03:55.805Z,65.29
2023-07-08T21:06:30.987Z,65.83
2023-07-08T21:08:58.960Z,65.74
2023-07-08T21:11:28.659Z,65.95
2023-07-08T21:13:57.348Z,66.47
2023-07-08T21:16:28.107Z,66.45
2023-07-08T21:18:58.539Z,66.78
2023-07-08T21:21:26.979Z,66.65
2023-07-08T21:23:55.107Z,67.15
2023-07-08T21:26:26.198Z,67.03
2023-07-08T21:28:57.761Z,67.77
2023-07-08T21:31:26.205Z,67.75
2023-07-08T21:33:54.220Z,67.91
2023-07-08T21:36:26.995Z,68.38
2023-07-08T21:38:58.197Z,68.17
2023-07-08T21:41:26.244Z,68.46
2023-07-08T21:43:55.855Z,68.65
2023-07-08T21:46:23.885Z,68.90
2023-07-08T21:48:52.032Z,71.20
2023-07-08T21:51:28.561Z,69.62
2023-07-08T21:53:57.519Z,70.59
2023-07-08T21:56:26.938Z,70.79
2023-07-08T21:58:57.945Z,71.11
2023-07-08T22:01:28.614Z,70.99
2023-07-08T22:03:57.423Z,71.16
2023-07-08T22:06:27.111Z,71.70
2023-07-08T22:08:55.860Z,71.77
2023-07-08T22:11:29.418Z,72.16
2023-07-08T22:13:59.789Z,72.21
2023-07-08T22:16:30.008Z,72.52
2023-07-08T22:18:58.894Z,72.92
2023-07-08T22:21:30.573Z,73.20
2023-07-08T22:23:59.518Z,73.50
2023-07-08T22:26:28.234Z,73.08
2023-07-08T22:28:56.398Z,73.26
2023-07-08T22:31:29.417Z,73.29
2023-07-08T22:33:57.726Z,72.78
2023-07-08T22:36:25.949Z,72.92
2023-07-08T22:39:02.455Z,73.28
2023-07-08T22:41:34.175Z,73.32
2023-07-08T22:44:02.252Z,73.86
2023-07-08T22:46:31.678Z,73.83
2023-07-08T22:49:01.499Z,73.82
2023-07-08T22:51:34.457Z,74.47
2023-07-08T22:54:05.263Z,74.37
2023-07-08T22:56:33.253Z,76.17
2023-07-08T22:59:01.385Z,78.57
2023-07-08T23:01:29.391Z,76.02
2023-07-08T23:03:58.918Z,76.12
2023-07-08T23:06:28.291Z,78.87
2023-07-08T23:08:56.504Z,80.01
2023-07-08T23:11:26.853Z,78.11
2023-07-08T23:13:54.965Z,77.55
2023-07-08T23:16:30.306Z,76.85
2023-07-08T23:19:02.759Z,76.38
2023-07-08T23:21:32.438Z,76.61
2023-07-08T23:24:01.687Z,76.85
2023-07-08T23:26:36.200Z,77.40
2023-07-08T23:29:06.018Z,76.88
2023-07-08T23:31:36.219Z,76.50
2023-07-08T23:34:06.474Z,77.00
2023-07-08T23:36:37.238Z,77.21
2023-07-08T23:39:13.997Z,77.33
2023-07-08T23:41:44.813Z,76.83
2023-07-08T23:44:13.533Z,77.02
2023-07-08T23:46:41.417Z,77.42
2023-07-08T23:49:23.035Z,78.22
2023-07-08T23:51:51.385Z,79.19
2023-07-08T23:54:23.064Z,78.92
2023-07-08T23:56:52.212Z,80.10
2023-07-08T23:59:20.424Z,81.27
